sensor_id;sensor_type;location;lat;lon;timestamp;P1;durP1;ratioP1;P2;durP2;ratioP2
22660;SDS011;11497;52.222;21.246;2023-06-19T00:01:16;36.15;;;25.55;;
22660;SDS011;11497;52.222;21.246;2023-06-19T00:03:44;39.20;;;26.63;;
22660;SDS011;11497;52.222;21.246;2023-06-19T00:06:11;50.33;;;29.23;;
22660;SDS011;11497;52.222;21.246;2023-06-19T00:08:39;47.83;;;29.05;;
22660;SDS011;11497;52.222;21.246;2023-06-19T00:11:08;46.63;;;28.35;;
22660;SDS011;11497;52.222;21.246;2023-06-19T00:13:36;44.92;;;29.40;;
22660;SDS011;11497;52.222;21.246;2023-06-19T00:16:03;47.17;;;28.48;;
22660;SDS011;11497;52.222;21.246;2023-06-19T00:18:31;44.13;;;27.75;;
22660;SDS011;11497;52.222;21.246;2023-06-19T00:21:06;43.70;;;27.60;;
22660;SDS011;11497;52.222;21.246;2023-06-19T00:23:35;42.90;;;27.85;;
22660;SDS011;11497;52.222;21.246;2023-06-19T00:26:03;45.40;;;28.92;;
22660;SDS011;11497;52.222;21.246;2023-06-19T00:28:31;41.83;;;27.55;;
22660;SDS011;11497;52.222;21.246;2023-06-19T00:30:59;42.72;;;28.25;;
22660;SDS011;11497;52.222;21.246;2023-06-19T00:33:27;48.40;;;30.33;;
22660;SDS011;11497;52.222;21.246;2023-06-19T00:35:55;52.95;;;28.45;;
22660;SDS011;11497;52.222;21.246;2023-06-19T00:38:23;48.25;;;29.38;;
22660;SDS011;11497;52.222;21.246;2023-06-19T00:40:51;56.33;;;31.25;;
22660;SDS011;11497;52.222;21.246;2023-06-19T00:43:19;58.00;;;33.08;;
22660;SDS011;11497;52.222;21.246;2023-06-19T00:45:47;53.15;;;31.70;;
22660;SDS011;11497;52.222;21.246;2023-06-19T00:48:15;52.80;;;31.58;;
22660;SDS011;11497;52.222;21.246;2023-06-19T00:50:43;52.58;;;30.85;;
22660;SDS011;11497;52.222;21.246;2023-06-19T00:53:11;53.03;;;30.58;;
22660;SDS011;11497;52.222;21.246;2023-06-19T00:55:39;53.85;;;31.02;;
22660;SDS011;11497;52.222;21.246;2023-06-19T00:58:08;52.58;;;27.88;;
22660;SDS011;11497;52.222;21.246;2023-06-19T01:00:37;41.70;;;25.52;;
22660;SDS011;11497;52.222;21.246;2023-06-19T01:03:07;45.67;;;25.02;;
22660;SDS011;11497;52.222;21.246;2023-06-19T01:05:35;36.97;;;24.98;;
22660;SDS011;11497;52.222;21.246;2023-06-19T01:08:04;38.67;;;24.98;;
22660;SDS011;11497;52.222;21.246;2023-06-19T01:10:46;41.95;;;25.55;;
22660;SDS011;11497;52.222;21.246;2023-06-19T01:16:03;33.25;;;23.95;;
22660;SDS011;11497;52.222;21.246;2023-06-19T01:18:33;36.22;;;25.00;;
22660;SDS011;11497;52.222;21.246;2023-06-19T01:21:09;38.22;;;24.63;;
22660;SDS011;11497;52.222;21.246;2023-06-19T01:23:38;42.55;;;25.65;;
22660;SDS011;11497;52.222;21.246;2023-06-19T01:26:06;41.47;;;26.08;;
22660;SDS011;11497;52.222;21.246;2023-06-19T01:28:38;35.65;;;25.55;;
22660;SDS011;11497;52.222;21.246;2023-06-19T01:31:10;36.83;;;24.75;;
22660;SDS011;11497;52.222;21.246;2023-06-19T01:33:42;40.92;;;25.60;;
22660;SDS011;11497;52.222;21.246;2023-06-19T01:36:14;40.85;;;25.00;;
22660;SDS011;11497;52.222;21.246;2023-06-19T01:38:44;34.50;;;22.98;;
22660;SDS011;11497;52.222;21.246;2023-06-19T01:41:15;32.33;;;22.77;;
22660;SDS011;11497;52.222;21.246;2023-06-19T01:43:45;37.90;;;24.17;;
22660;SDS011;11497;52.222;21.246;2023-06-19T01:46:14;34.50;;;24.23;;
22660;SDS011;11497;52.222;21.246;2023-06-19T01:48:42;34.33;;;24.40;;
22660;SDS011;11497;52.222;21.246;2023-06-19T01:51:09;38.70;;;25.75;;
22660;SDS011;11497;52.222;21.246;2023-06-19T01:53:38;36.17;;;23.83;;
22660;SDS011;11497;52.222;21.246;2023-06-19T01:56:06;36.38;;;23.88;;
22660;SDS011;11497;52.222;21.246;2023-06-19T01:58:34;37.75;;;23.77;;
22660;SDS011;11497;52.222;21.246;2023-06-19T02:01:02;36.58;;;24.00;;
22660;SDS011;11497;52.222;21.246;2023-06-19T02:03:30;39.53;;;25.05;;
22660;SDS011;11497;52.222;21.246;2023-06-19T02:05:58;38.40;;;24.95;;
22660;SDS011;11497;52.222;21.246;2023-06-19T02:08:26;35.13;;;24.95;;
22660;SDS011;11497;52.222;21.246;2023-06-19T02:10:54;36.67;;;24.65;;
22660;SDS011;11497;52.222;21.246;2023-06-19T02:13:23;35.35;;;23.90;;
22660;SDS011;11497;52.222;21.246;2023-06-19T02:15:50;34.28;;;23.35;;
22660;SDS011;11497;52.222;21.246;2023-06-19T02:18:23;35.45;;;24.38;;
22660;SDS011;11497;52.222;21.246;2023-06-19T02:20:51;35.65;;;25.40;;
22660;SDS011;11497;52.222;21.246;2023-06-19T02:23:19;40.42;;;26.13;;
22660;SDS011;11497;52.222;21.246;2023-06-19T02:25:46;36.88;;;24.02;;
22660;SDS011;11497;52.222;21.246;2023-06-19T02:28:16;35.47;;;23.98;;
22660;SDS011;11497;52.222;21.246;2023-06-19T02:30:44;37.15;;;24.23;;
22660;SDS011;11497;52.222;21.246;2023-06-19T02:33:12;36.38;;;23.17;;
22660;SDS011;11497;52.222;21.246;2023-06-19T02:35:40;34.33;;;24.23;;
22660;SDS011;11497;52.222;21.246;2023-06-19T02:38:08;39.13;;;24.27;;
22660;SDS011;11497;52.222;21.246;2023-06-19T02:40:36;34.03;;;23.83;;
22660;SDS011;11497;52.222;21.246;2023-06-19T02:43:04;32.95;;;22.98;;
22660;SDS011;11497;52.222;21.246;2023-06-19T02:45:32;38.08;;;24.63;;
22660;SDS011;11497;52.222;21.246;2023-06-19T02:48:02;33.65;;;23.40;;
22660;SDS011;11497;52.222;21.246;2023-06-19T02:50:31;31.38;;;23.35;;
22660;SDS011;11497;52.222;21.246;2023-06-19T02:52:59;31.05;;;22.45;;
22660;SDS011;11497;52.222;21.246;2023-06-19T02:55:27;29.42;;;21.55;;
22660;SDS011;11497;52.222;21.246;2023-06-19T02:57:56;34.63;;;22.42;;
22660;SDS011;11497;52.222;21.246;2023-06-19T03:00:23;35.03;;;23.77;;
22660;SDS011;11497;52.222;21.246;2023-06-19T03:02:52;37.33;;;23.85;;
22660;SDS011;11497;52.222;21.246;2023-06-19T03:05:20;40.70;;;22.70;;
22660;SDS011;11497;52.222;21.246;2023-06-19T03:07:48;34.45;;;22.27;;
22660;SDS011;11497;52.222;21.246;2023-06-19T03:10:15;30.75;;;22.60;;
22660;SDS011;11497;52.222;21.246;2023-06-19T03:12:43;32.22;;;22.77;;
22660;SDS011;11497;52.222;21.246;2023-06-19T03:15:11;32.65;;;22.38;;
22660;SDS011;11497;52.222;21.246;2023-06-19T03:17:43;35.70;;;23.50;;
22660;SDS011;11497;52.222;21.246;2023-06-19T03:20:12;30.92;;;23.63;;
22660;SDS011;11497;52.222;21.246;2023-06-19T03:22:46;31.88;;;23.45;;
22660;SDS011;11497;52.222;21.246;2023-06-19T03:25:16;35.70;;;23.30;;
22660;SDS011;11497;52.222;21.246;2023-06-19T03:27:47;34.42;;;23.50;;
22660;SDS011;11497;52.222;21.246;2023-06-19T03:30:15;33.38;;;23.58;;
22660;SDS011;11497;52.222;21.246;2023-06-19T03:32:48;37.60;;;24.27;;
22660;SDS011;11497;52.222;21.246;2023-06-19T03:35:45;39.88;;;25.45;;
22660;SDS011;11497;52.222;21.246;2023-06-19T03:38:27;48.08;;;27.65;;
22660;SDS011;11497;52.222;21.246;2023-06-19T03:40:55;42.22;;;29.40;;
22660;SDS011;11497;52.222;21.246;2023-06-19T03:43:26;51.88;;;33.45;;
22660;SDS011;11497;52.222;21.246;2023-06-19T03:45:54;44.70;;;31.40;;
22660;SDS011;11497;52.222;21.246;2023-06-19T03:48:22;41.72;;;29.63;;
22660;SDS011;11497;52.222;21.246;2023-06-19T03:50:49;44.65;;;30.73;;
22660;SDS011;11497;52.222;21.246;2023-06-19T03:53:17;42.83;;;30.42;;
22660;SDS011;11497;52.222;21.246;2023-06-19T03:55:45;42.28;;;28.02;;
22660;SDS011;11497;52.222;21.246;2023-06-19T03:58:13;41.15;;;28.13;;
22660;SDS011;11497;52.222;21.246;2023-06-19T04:00:41;40.20;;;27.38;;
22660;SDS011;11497;52.222;21.246;2023-06-19T04:03:09;42.35;;;27.85;;
22660;SDS011;11497;52.222;21.246;2023-06-19T04:05:37;35.53;;;25.67;;
22660;SDS011;11497;52.222;21.246;2023-06-19T04:08:10;34.60;;;25.30;;
22660;SDS011;11497;52.222;21.246;2023-06-19T04:10:42;33.05;;;24.48;;
22660;SDS011;11497;52.222;21.246;2023-06-19T04:13:10;33.83;;;23.30;;
22660;SDS011;11497;52.222;21.246;2023-06-19T04:15:38;33.30;;;24.88;;
22660;SDS011;11497;52.222;21.246;2023-06-19T04:18:06;32.28;;;24.10;;
22660;SDS011;11497;52.222;21.246;2023-06-19T04:20:36;37.67;;;24.85;;
22660;SDS011;11497;52.222;21.246;2023-06-19T04:23:04;36.05;;;25.52;;
22660;SDS011;11497;52.222;21.246;2023-06-19T04:25:32;35.47;;;26.23;;
22660;SDS011;11497;52.222;21.246;2023-06-19T04:27:59;34.45;;;24.75;;
22660;SDS011;11497;52.222;21.246;2023-06-19T04:30:30;32.08;;;24.48;;
22660;SDS011;11497;52.222;21.246;2023-06-19T04:32:58;31.77;;;22.77;;
22660;SDS011;11497;52.222;21.246;2023-06-19T04:35:26;33.53;;;22.27;;
22660;SDS011;11497;52.222;21.246;2023-06-19T04:37:54;27.73;;;22.05;;
22660;SDS011;11497;52.222;21.246;2023-06-19T04:40:21;25.15;;;21.25;;
22660;SDS011;11497;52.222;21.246;2023-06-19T04:42:52;29.23;;;20.80;;
22660;SDS011;11497;52.222;21.246;2023-06-19T04:45:20;25.50;;;21.52;;
22660;SDS011;11497;52.222;21.246;2023-06-19T04:47:48;25.25;;;20.48;;
22660;SDS011;11497;52.222;21.246;2023-06-19T04:50:20;29.05;;;23.15;;
22660;SDS011;11497;52.222;21.246;2023-06-19T04:52:49;25.83;;;21.13;;
22660;SDS011;11497;52.222;21.246;2023-06-19T04:55:18;22.88;;;19.75;;
22660;SDS011;11497;52.222;21.246;2023-06-19T04:57:46;25.77;;;20.63;;
22660;SDS011;11497;52.222;21.246;2023-06-19T05:00:14;25.80;;;20.60;;
22660;SDS011;11497;52.222;21.246;2023-06-19T05:02:45;24.35;;;19.20;;
22660;SDS011;11497;52.222;21.246;2023-06-19T05:05:14;23.83;;;19.58;;
22660;SDS011;11497;52.222;21.246;2023-06-19T05:07:44;22.95;;;19.52;;
22660;SDS011;11497;52.222;21.246;2023-06-19T05:10:12;22.77;;;18.75;;
22660;SDS011;11497;52.222;21.246;2023-06-19T05:12:40;31.70;;;23.52;;
22660;SDS011;11497;52.222;21.246;2023-06-19T05:15:07;21.23;;;18.65;;
22660;SDS011;11497;52.222;21.246;2023-06-19T05:17:36;20.55;;;17.58;;
22660;SDS011;11497;52.222;21.246;2023-06-19T05:20:05;22.30;;;18.08;;
22660;SDS011;11497;52.222;21.246;2023-06-19T05:22:34;21.63;;;17.83;;
22660;SDS011;11497;52.222;21.246;2023-06-19T05:25:03;21.77;;;16.92;;
22660;SDS011;11497;52.222;21.246;2023-06-19T05:27:31;19.58;;;16.70;;
22660;SDS011;11497;52.222;21.246;2023-06-19T05:29:59;19.98;;;16.42;;
22660;SDS011;11497;52.222;21.246;2023-06-19T05:32:27;18.90;;;16.77;;
22660;SDS011;11497;52.222;21.246;2023-06-19T05:34:55;17.80;;;15.90;;
22660;SDS011;11497;52.222;21.246;2023-06-19T05:37:23;20.85;;;18.15;;
22660;SDS011;11497;52.222;21.246;2023-06-19T05:39:51;20.38;;;15.30;;
22660;SDS011;11497;52.222;21.246;2023-06-19T05:42:18;18.42;;;15.15;;
22660;SDS011;11497;52.222;21.246;2023-06-19T05:44:46;19.42;;;14.45;;
22660;SDS011;11497;52.222;21.246;2023-06-19T05:47:14;18.15;;;14.77;;
22660;SDS011;11497;52.222;21.246;2023-06-19T05:49:43;17.15;;;13.65;;
22660;SDS011;11497;52.222;21.246;2023-06-19T05:52:11;16.25;;;13.80;;
22660;SDS011;11497;52.222;21.246;2023-06-19T05:54:39;15.95;;;14.18;;
22660;SDS011;11497;52.222;21.246;2023-06-19T05:57:07;16.50;;;14.48;;
22660;SDS011;11497;52.222;21.246;2023-06-19T05:59:35;15.70;;;14.05;;
22660;SDS011;11497;52.222;21.246;2023-06-19T06:02:03;14.90;;;13.23;;
22660;SDS011;11497;52.222;21.246;2023-06-19T06:04:32;18.70;;;13.80;;
22660;SDS011;11497;52.222;21.246;2023-06-19T06:07:01;15.88;;;13.25;;
22660;SDS011;11497;52.222;21.246;2023-06-19T06:09:29;15.25;;;12.63;;
22660;SDS011;11497;52.222;21.246;2023-06-19T06:11:57;20.08;;;13.00;;
22660;SDS011;11497;52.222;21.246;2023-06-19T06:14:25;17.73;;;12.38;;
22660;SDS011;11497;52.222;21.246;2023-06-19T06:16:53;14.15;;;12.63;;
22660;SDS011;11497;52.222;21.246;2023-06-19T06:19:21;15.68;;;13.27;;
22660;SDS011;11497;52.222;21.246;2023-06-19T06:21:52;14.70;;;13.20;;
22660;SDS011;11497;52.222;21.246;2023-06-19T06:24:20;14.27;;;12.73;;
22660;SDS011;11497;52.222;21.246;2023-06-19T06:26:48;14.98;;;12.65;;
22660;SDS011;11497;52.222;21.246;2023-06-19T06:29:16;15.20;;;12.15;;
22660;SDS011;11497;52.222;21.246;2023-06-19T06:31:46;16.10;;;12.85;;
22660;SDS011;11497;52.222;21.246;2023-06-19T06:34:14;13.65;;;12.25;;
22660;SDS011;11497;52.222;21.246;2023-06-19T06:36:41;13.32;;;12.02;;
22660;SDS011;11497;52.222;21.246;2023-06-19T06:39:27;15.27;;;12.50;;
22660;SDS011;11497;52.222;21.246;2023-06-19T06:41:55;13.73;;;12.27;;
22660;SDS011;11497;52.222;21.246;2023-06-19T06:44:23;13.30;;;11.90;;
22660;SDS011;11497;52.222;21.246;2023-06-19T06:46:50;14.40;;;12.45;;
22660;SDS011;11497;52.222;21.246;2023-06-19T06:49:18;13.35;;;11.93;;
22660;SDS011;11497;52.222;21.246;2023-06-19T06:51:46;14.15;;;12.15;;
22660;SDS011;11497;52.222;21.246;2023-06-19T06:54:14;16.48;;;11.73;;
22660;SDS011;11497;52.222;21.246;2023-06-19T06:56:42;15.95;;;11.52;;
22660;SDS011;11497;52.222;21.246;2023-06-19T06:59:14;14.20;;;11.80;;
22660;SDS011;11497;52.222;21.246;2023-06-19T07:01:42;14.30;;;11.80;;
22660;SDS011;11497;52.222;21.246;2023-06-19T07:04:10;13.90;;;11.55;;
22660;SDS011;11497;52.222;21.246;2023-06-19T07:06:38;12.95;;;11.23;;
22660;SDS011;11497;52.222;21.246;2023-06-19T07:09:05;14.02;;;12.50;;
22660;SDS011;11497;52.222;21.246;2023-06-19T07:11:33;15.07;;;12.05;;
22660;SDS011;11497;52.222;21.246;2023-06-19T07:14:01;12.02;;;10.25;;
22660;SDS011;11497;52.222;21.246;2023-06-19T07:16:29;11.27;;;10.10;;
22660;SDS011;11497;52.222;21.246;2023-06-19T07:18:57;11.40;;;9.30;;
22660;SDS011;11497;52.222;21.246;2023-06-19T07:21:24;10.68;;;9.57;;
22660;SDS011;11497;52.222;21.246;2023-06-19T07:23:55;9.48;;;8.57;;
22660;SDS011;11497;52.222;21.246;2023-06-19T07:26:23;10.52;;;8.80;;
22660;SDS011;11497;52.222;21.246;2023-06-19T07:28:51;9.70;;;8.63;;
22660;SDS011;11497;52.222;21.246;2023-06-19T07:31:19;9.32;;;8.52;;
22660;SDS011;11497;52.222;21.246;2023-06-19T07:33:47;9.50;;;8.60;;
22660;SDS011;11497;52.222;21.246;2023-06-19T07:36:15;9.70;;;8.52;;
22660;SDS011;11497;52.222;21.246;2023-06-19T07:38:43;9.27;;;8.38;;
22660;SDS011;11497;52.222;21.246;2023-06-19T07:41:12;9.40;;;8.60;;
22660;SDS011;11497;52.222;21.246;2023-06-19T07:43:40;8.93;;;8.00;;
22660;SDS011;11497;52.222;21.246;2023-06-19T07:46:09;8.90;;;7.88;;
22660;SDS011;11497;52.222;21.246;2023-06-19T07:48:37;8.68;;;7.90;;
22660;SDS011;11497;52.222;21.246;2023-06-19T07:51:05;7.95;;;7.18;;
22660;SDS011;11497;52.222;21.246;2023-06-19T07:53:33;8.32;;;7.55;;
22660;SDS011;11497;52.222;21.246;2023-06-19T07:56:00;10.50;;;8.05;;
22660;SDS011;11497;52.222;21.246;2023-06-19T07:58:28;8.30;;;7.60;;
22660;SDS011;11497;52.222;21.246;2023-06-19T08:00:56;9.15;;;7.57;;
22660;SDS011;11497;52.222;21.246;2023-06-19T08:03:24;8.60;;;7.80;;
22660;SDS011;11497;52.222;21.246;2023-06-19T08:05:52;10.90;;;7.68;;
22660;SDS011;11497;52.222;21.246;2023-06-19T08:08:20;8.25;;;7.45;;
22660;SDS011;11497;52.222;21.246;2023-06-19T08:10:48;7.53;;;6.88;;
22660;SDS011;11497;52.222;21.246;2023-06-19T08:13:16;8.80;;;7.60;;
22660;SDS011;11497;52.222;21.246;2023-06-19T08:15:44;8.13;;;7.38;;
22660;SDS011;11497;52.222;21.246;2023-06-19T08:18:12;8.18;;;7.45;;
22660;SDS011;11497;52.222;21.246;2023-06-19T08:20:40;10.00;;;7.30;;
22660;SDS011;11497;52.222;21.246;2023-06-19T08:23:08;7.97;;;7.25;;
22660;SDS011;11497;52.222;21.246;2023-06-19T08:25:35;7.97;;;7.22;;
22660;SDS011;11497;52.222;21.246;2023-06-19T08:28:03;7.72;;;7.00;;
22660;SDS011;11497;52.222;21.246;2023-06-19T08:30:31;7.80;;;7.07;;
22660;SDS011;11497;52.222;21.246;2023-06-19T08:32:59;7.88;;;7.07;;
22660;SDS011;11497;52.222;21.246;2023-06-19T08:35:27;7.22;;;6.63;;
22660;SDS011;11497;52.222;21.246;2023-06-19T08:37:55;7.32;;;6.63;;
22660;SDS011;11497;52.222;21.246;2023-06-19T08:40:23;7.22;;;6.53;;
22660;SDS011;11497;52.222;21.246;2023-06-19T08:42:51;7.03;;;6.43;;
22660;SDS011;11497;52.222;21.246;2023-06-19T08:45:19;7.82;;;7.05;;
22660;SDS011;11497;52.222;21.246;2023-06-19T08:47:48;6.68;;;6.18;;
22660;SDS011;11497;52.222;21.246;2023-06-19T08:50:16;7.00;;;6.30;;
22660;SDS011;11497;52.222;21.246;2023-06-19T08:52:44;6.80;;;6.30;;
22660;SDS011;11497;52.222;21.246;2023-06-19T08:55:11;7.47;;;6.50;;
22660;SDS011;11497;52.222;21.246;2023-06-19T08:57:39;7.10;;;6.50;;
22660;SDS011;11497;52.222;21.246;2023-06-19T09:00:08;7.45;;;6.72;;
22660;SDS011;11497;52.222;21.246;2023-06-19T09:02:43;7.45;;;6.38;;
22660;SDS011;11497;52.222;21.246;2023-06-19T09:05:23;7.70;;;6.18;;
22660;SDS011;11497;52.222;21.246;2023-06-19T09:07:56;6.60;;;6.00;;
22660;SDS011;11497;52.222;21.246;2023-06-19T09:10:25;7.38;;;6.70;;
22660;SDS011;11497;52.222;21.246;2023-06-19T09:13:00;8.10;;;6.20;;
22660;SDS011;11497;52.222;21.246;2023-06-19T09:15:31;6.55;;;5.95;;
22660;SDS011;11497;52.222;21.246;2023-06-19T09:20:40;6.32;;;5.72;;
22660;SDS011;11497;52.222;21.246;2023-06-19T09:23:11;6.35;;;5.85;;
22660;SDS011;11497;52.222;21.246;2023-06-19T09:25:46;5.78;;;5.25;;
22660;SDS011;11497;52.222;21.246;2023-06-19T09:30:56;8.68;;;6.32;;
22660;SDS011;11497;52.222;21.246;2023-06-19T09:33:30;9.50;;;6.30;;
22660;SDS011;11497;52.222;21.246;2023-06-19T09:35:59;10.10;;;6.53;;
22660;SDS011;11497;52.222;21.246;2023-06-19T09:38:29;7.05;;;6.45;;
22660;SDS011;11497;52.222;21.246;2023-06-19T09:41:03;6.45;;;5.93;;
22660;SDS011;11497;52.222;21.246;2023-06-19T09:46:04;8.52;;;5.68;;
22660;SDS011;11497;52.222;21.246;2023-06-19T09:48:34;6.00;;;5.50;;
22660;SDS011;11497;52.222;21.246;2023-06-19T09:53:52;6.13;;;5.47;;
22660;SDS011;11497;52.222;21.246;2023-06-19T09:56:20;6.60;;;6.00;;
22660;SDS011;11497;52.222;21.246;2023-06-19T09:58:50;6.10;;;5.50;;
22660;SDS011;11497;52.222;21.246;2023-06-19T10:01:20;6.90;;;6.22;;
22660;SDS011;11497;52.222;21.246;2023-06-19T10:03:49;6.03;;;5.53;;
22660;SDS011;11497;52.222;21.246;2023-06-19T10:06:27;6.80;;;6.20;;
22660;SDS011;11497;52.222;21.246;2023-06-19T10:09:05;6.25;;;5.72;;
22660;SDS011;11497;52.222;21.246;2023-06-19T10:11:45;10.25;;;5.93;;
22660;SDS011;11497;52.222;21.246;2023-06-19T10:14:14;6.50;;;5.97;;
22660;SDS011;11497;52.222;21.246;2023-06-19T10:16:45;7.45;;;6.20;;
22660;SDS011;11497;52.222;21.246;2023-06-19T10:19:13;10.43;;;6.53;;
22660;SDS011;11497;52.222;21.246;2023-06-19T10:21:43;6.10;;;5.60;;
22660;SDS011;11497;52.222;21.246;2023-06-19T10:24:16;8.60;;;5.60;;
22660;SDS011;11497;52.222;21.246;2023-06-19T10:26:56;6.80;;;6.03;;
22660;SDS011;11497;52.222;21.246;2023-06-19T10:29:38;7.78;;;6.68;;
22660;SDS011;11497;52.222;21.246;2023-06-19T10:32:14;7.80;;;7.00;;
22660;SDS011;11497;52.222;21.246;2023-06-19T10:34:47;7.72;;;6.80;;
22660;SDS011;11497;52.222;21.246;2023-06-19T10:37:18;6.70;;;5.85;;
22660;SDS011;11497;52.222;21.246;2023-06-19T10:39:58;8.00;;;6.35;;
22660;SDS011;11497;52.222;21.246;2023-06-19T10:42:26;7.82;;;6.22;;
22660;SDS011;11497;52.222;21.246;2023-06-19T10:44:59;8.07;;;7.28;;
22660;SDS011;11497;52.222;21.246;2023-06-19T10:47:32;7.78;;;7.07;;
22660;SDS011;11497;52.222;21.246;2023-06-19T10:50:01;8.13;;;7.10;;
22660;SDS011;11497;52.222;21.246;2023-06-19T10:52:29;8.80;;;7.90;;
22660;SDS011;11497;52.222;21.246;2023-06-19T10:54:58;9.63;;;7.47;;
22660;SDS011;11497;52.222;21.246;2023-06-19T10:57:28;8.40;;;7.55;;
22660;SDS011;11497;52.222;21.246;2023-06-19T10:59:57;11.32;;;7.40;;
22660;SDS011;11497;52.222;21.246;2023-06-19T11:02:25;8.98;;;7.65;;
22660;SDS011;11497;52.222;21.246;2023-06-19T11:04:54;8.77;;;7.50;;
22660;SDS011;11497;52.222;21.246;2023-06-19T11:07:22;8.93;;;7.32;;
22660;SDS011;11497;52.222;21.246;2023-06-19T11:09:49;7.88;;;7.07;;
22660;SDS011;11497;52.222;21.246;2023-06-19T11:12:20;23.58;;;8.65;;
22660;SDS011;11497;52.222;21.246;2023-06-19T11:14:48;130.73;;;18.25;;
22660;SDS011;11497;52.222;21.246;2023-06-19T11:17:17;8.43;;;7.50;;
22660;SDS011;11497;52.222;21.246;2023-06-19T11:19:49;11.50;;;8.05;;
22660;SDS011;11497;52.222;21.246;2023-06-19T11:22:17;11.07;;;9.13;;
22660;SDS011;11497;52.222;21.246;2023-06-19T11:24:45;12.55;;;9.30;;
22660;SDS011;11497;52.222;21.246;2023-06-19T11:27:20;21.15;;;8.35;;
22660;SDS011;11497;52.222;21.246;2023-06-19T11:29:55;9.80;;;7.75;;
22660;SDS011;11497;52.222;21.246;2023-06-19T11:32:31;9.20;;;8.00;;
22660;SDS011;11497;52.222;21.246;2023-06-19T11:35:07;12.27;;;7.90;;
22660;SDS011;11497;52.222;21.246;2023-06-19T11:37:41;44.90;;;10.45;;
22660;SDS011;11497;52.222;21.246;2023-06-19T11:40:11;20.17;;;8.82;;
22660;SDS011;11497;52.222;21.246;2023-06-19T11:42:48;12.52;;;7.97;;
22660;SDS011;11497;52.222;21.246;2023-06-19T11:45:20;9.40;;;8.50;;
22660;SDS011;11497;52.222;21.246;2023-06-19T11:47:49;12.93;;;8.30;;
22660;SDS011;11497;52.222;21.246;2023-06-19T11:50:17;8.32;;;7.40;;
22660;SDS011;11497;52.222;21.246;2023-06-19T11:52:46;10.35;;;8.50;;
22660;SDS011;11497;52.222;21.246;2023-06-19T11:55:14;79.25;;;16.60;;
22660;SDS011;11497;52.222;21.246;2023-06-19T11:57:42;9.90;;;7.97;;
22660;SDS011;11497;52.222;21.246;2023-06-19T12:00:14;12.07;;;8.15;;
22660;SDS011;11497;52.222;21.246;2023-06-19T12:02:44;8.57;;;7.78;;
22660;SDS011;11497;52.222;21.246;2023-06-19T12:05:14;13.88;;;7.50;;
22660;SDS011;11497;52.222;21.246;2023-06-19T12:07:42;11.23;;;7.75;;
22660;SDS011;11497;52.222;21.246;2023-06-19T12:10:10;8.98;;;7.45;;
22660;SDS011;11497;52.222;21.246;2023-06-19T12:12:38;9.38;;;8.00;;
22660;SDS011;11497;52.222;21.246;2023-06-19T12:15:06;53.00;;;12.13;;
22660;SDS011;11497;52.222;21.246;2023-06-19T12:17:34;58.15;;;12.05;;
22660;SDS011;11497;52.222;21.246;2023-06-19T12:20:03;49.15;;;12.35;;
22660;SDS011;11497;52.222;21.246;2023-06-19T12:22:34;11.75;;;8.45;;
22660;SDS011;11497;52.222;21.246;2023-06-19T12:25:02;9.93;;;8.05;;
22660;SDS011;11497;52.222;21.246;2023-06-19T12:27:30;10.15;;;7.97;;
22660;SDS011;11497;52.222;21.246;2023-06-19T12:30:00;10.05;;;8.02;;
22660;SDS011;11497;52.222;21.246;2023-06-19T12:32:28;13.23;;;8.45;;
22660;SDS011;11497;52.222;21.246;2023-06-19T12:34:56;9.05;;;7.90;;
22660;SDS011;11497;52.222;21.246;2023-06-19T12:37:23;11.05;;;7.57;;
22660;SDS011;11497;52.222;21.246;2023-06-19T12:39:52;11.07;;;7.70;;
22660;SDS011;11497;52.222;21.246;2023-06-19T12:42:19;8.80;;;7.90;;
22660;SDS011;11497;52.222;21.246;2023-06-19T12:44:47;8.50;;;7.68;;
22660;SDS011;11497;52.222;21.246;2023-06-19T12:47:15;25.20;;;11.73;;
22660;SDS011;11497;52.222;21.246;2023-06-19T12:49:45;51.33;;;15.90;;
22660;SDS011;11497;52.222;21.246;2023-06-19T12:52:13;13.77;;;8.48;;
22660;SDS011;11497;52.222;21.246;2023-06-19T12:54:41;8.90;;;7.65;;
22660;SDS011;11497;52.222;21.246;2023-06-19T12:57:09;11.20;;;7.80;;
22660;SDS011;11497;52.222;21.246;2023-06-19T12:59:37;8.35;;;7.60;;
22660;SDS011;11497;52.222;21.246;2023-06-19T13:02:04;9.45;;;7.55;;
22660;SDS011;11497;52.222;21.246;2023-06-19T13:04:33;35.45;;;9.75;;
22660;SDS011;11497;52.222;21.246;2023-06-19T13:07:01;15.32;;;8.15;;
22660;SDS011;11497;52.222;21.246;2023-06-19T13:09:29;8.00;;;7.10;;
22660;SDS011;11497;52.222;21.246;2023-06-19T13:11:57;11.73;;;7.60;;
22660;SDS011;11497;52.222;21.246;2023-06-19T13:14:25;7.15;;;6.50;;
22660;SDS011;11497;52.222;21.246;2023-06-19T13:16:53;9.88;;;7.28;;
22660;SDS011;11497;52.222;21.246;2023-06-19T13:19:21;7.22;;;6.47;;
22660;SDS011;11497;52.222;21.246;2023-06-19T13:21:48;7.50;;;6.65;;
22660;SDS011;11497;52.222;21.246;2023-06-19T13:24:16;8.13;;;7.32;;
22660;SDS011;11497;52.222;21.246;2023-06-19T13:26:44;6.65;;;6.05;;
22660;SDS011;11497;52.222;21.246;2023-06-19T13:29:12;7.80;;;6.80;;
22660;SDS011;11497;52.222;21.246;2023-06-19T13:31:40;9.63;;;6.70;;
22660;SDS011;11497;52.222;21.246;2023-06-19T13:34:08;7.25;;;6.55;;
22660;SDS011;11497;52.222;21.246;2023-06-19T13:36:35;7.47;;;6.57;;
22660;SDS011;11497;52.222;21.246;2023-06-19T13:39:03;7.38;;;6.68;;
22660;SDS011;11497;52.222;21.246;2023-06-19T13:41:31;8.02;;;6.75;;
22660;SDS011;11497;52.222;21.246;2023-06-19T13:44:00;7.10;;;6.40;;
22660;SDS011;11497;52.222;21.246;2023-06-19T13:46:28;7.07;;;5.85;;
22660;SDS011;11497;52.222;21.246;2023-06-19T13:48:58;7.35;;;6.43;;
22660;SDS011;11497;52.222;21.246;2023-06-19T13:51:27;9.82;;;6.05;;
22660;SDS011;11497;52.222;21.246;2023-06-19T13:53:55;10.82;;;6.25;;
22660;SDS011;11497;52.222;21.246;2023-06-19T13:56:23;7.95;;;5.90;;
22660;SDS011;11497;52.222;21.246;2023-06-19T13:58:51;10.38;;;6.22;;
22660;SDS011;11497;52.222;21.246;2023-06-19T14:01:18;11.25;;;6.75;;
22660;SDS011;11497;52.222;21.246;2023-06-19T14:03:47;6.93;;;5.97;;
22660;SDS011;11497;52.222;21.246;2023-06-19T14:06:15;7.30;;;6.28;;
22660;SDS011;11497;52.222;21.246;2023-06-19T14:08:43;8.38;;;5.85;;
22660;SDS011;11497;52.222;21.246;2023-06-19T14:11:11;8.95;;;5.97;;
22660;SDS011;11497;52.222;21.246;2023-06-19T14:13:40;10.30;;;6.28;;
22660;SDS011;11497;52.222;21.246;2023-06-19T14:16:08;7.35;;;6.22;;
22660;SDS011;11497;52.222;21.246;2023-06-19T14:18:36;9.27;;;7.10;;
22660;SDS011;11497;52.222;21.246;2023-06-19T14:21:04;8.32;;;6.43;;
22660;SDS011;11497;52.222;21.246;2023-06-19T14:23:32;9.50;;;6.10;;
22660;SDS011;11497;52.222;21.246;2023-06-19T14:26:05;6.50;;;5.82;;
22660;SDS011;11497;52.222;21.246;2023-06-19T14:28:33;6.70;;;5.88;;
22660;SDS011;11497;52.222;21.246;2023-06-19T14:31:01;6.75;;;5.70;;
22660;SDS011;11497;52.222;21.246;2023-06-19T14:33:28;6.82;;;6.20;;
22660;SDS011;11497;52.222;21.246;2023-06-19T14:35:56;10.00;;;6.38;;
22660;SDS011;11497;52.222;21.246;2023-06-19T14:38:24;6.80;;;6.20;;
22660;SDS011;11497;52.222;21.246;2023-06-19T14:40:57;6.90;;;6.05;;
22660;SDS011;11497;52.222;21.246;2023-06-19T14:43:26;7.03;;;6.40;;